sensor_id;sensor_type;location;lat;lon;timestamp;pressure;altitude;pressure_sealevel;temperature;humidity
14120;BME280;7138;49.246;9.100;2023-07-20T00:02:11;98494.03;;;22.06;66.86
14120;BME280;7138;49.246;9.100;2023-07-20T00:04:38;98500.47;;;22.01;67.38
14120;BME280;7138;49.246;9.100;2023-07-20T00:07:05;98500.84;;;21.93;67.16
14120;BME280;7138;49.246;9.100;2023-07-20T00:09:31;98495.00;;;21.87;67.71
14120;BME280;7138;49.246;9.100;2023-07-20T00:11:57;98497.31;;;21.75;68.28
14120;BME280;7138;49.246;9.100;2023-07-20T00:14:25;98500.00;;;21.74;68.01
14120;BME280;7138;49.246;9.100;2023-07-20T00:16:51;98499.28;;;21.70;68.31
14120;BME280;7138;49.246;9.100;2023-07-20T00:19:24;98503.88;;;21.67;68.38
14120;BME280;7138;49.246;9.100;2023-07-20T00:21:52;98496.94;;;21.64;68.54
14120;BME280;7138;49.246;9.100;2023-07-20T00:24:18;98504.84;;;21.64;68.26
14120;BME280;7138;49.246;9.100;2023-07-20T00:26:44;98501.44;;;21.62;68.55
14120;BME280;7138;49.246;9.100;2023-07-20T00:29:10;98513.84;;;21.60;69.17
14120;BME280;7138;49.246;9.100;2023-07-20T00:31:36;98510.56;;;21.55;69.20
14120;BME280;7138;49.246;9.100;2023-07-20T00:34:03;98505.44;;;21.52;69.22
14120;BME280;7138;49.246;9.100;2023-07-20T00:36:28;98516.06;;;21.51;69.43
14120;BME280;7138;49.246;9.100;2023-07-20T00:38:56;98510.31;;;21.43;69.59
14120;BME280;7138;49.246;9.100;2023-07-20T00:41:22;98505.34;;;21.37;69.36
14120;BME280;7138;49.246;9.100;2023-07-20T00:43:48;98508.19;;;21.32;69.79
14120;BME280;7138;49.246;9.100;2023-07-20T00:46:14;98507.69;;;21.24;70.11
14120;BME280;7138;49.246;9.100;2023-07-20T00:48:41;98509.59;;;21.20;70.43
14120;BME280;7138;49.246;9.100;2023-07-20T00:51:07;98514.38;;;21.12;70.52
14120;BME280;7138;49.246;9.100;2023-07-20T00:53:34;98506.88;;;21.03;70.81
14120;BME280;7138;49.246;9.100;2023-07-20T00:56:01;98507.84;;;21.01;70.76
14120;BME280;7138;49.246;9.100;2023-07-20T00:58:27;98502.19;;;20.91;71.06
14120;BME280;7138;49.246;9.100;2023-07-20T01:00:53;98510.25;;;20.87;71.18
14120;BME280;7138;49.246;9.100;2023-07-20T01:03:20;98509.34;;;20.88;71.94
14120;BME280;7138;49.246;9.100;2023-07-20T01:05:54;98505.00;;;20.87;71.66
14120;BME280;7138;49.246;9.100;2023-07-20T01:08:32;98510.41;;;20.84;71.73
14120;BME280;7138;49.246;9.100;2023-07-20T01:11:10;98513.25;;;20.79;71.70
14120;BME280;7138;49.246;9.100;2023-07-20T01:13:39;98513.44;;;20.75;71.92
14120;BME280;7138;49.246;9.100;2023-07-20T01:16:05;98515.16;;;20.76;72.33
14120;BME280;7138;49.246;9.100;2023-07-20T01:18:31;98507.41;;;20.73;71.91
14120;BME280;7138;49.246;9.100;2023-07-20T01:21:06;98503.97;;;20.70;72.18
14120;BME280;7138;49.246;9.100;2023-07-20T01:27:46;98515.88;;;20.59;72.18
14120;BME280;7138;49.246;9.100;2023-07-20T01:30:45;98505.84;;;20.48;72.84
14120;BME280;7138;49.246;9.100;2023-07-20T01:33:15;98500.78;;;20.44;72.65
14120;BME280;7138;49.246;9.100;2023-07-20T01:35:44;98500.00;;;20.42;72.51
14120;BME280;7138;49.246;9.100;2023-07-20T01:38:13;98509.00;;;20.36;72.96
14120;BME280;7138;49.246;9.100;2023-07-20T01:40:40;98479.22;;;20.15;73.26
14120;BME280;7138;49.246;9.100;2023-07-20T01:43:06;98513.53;;;20.33;72.89
14120;BME280;7138;49.246;9.100;2023-07-20T01:45:32;98512.59;;;20.34;72.94
14120;BME280;7138;49.246;9.100;2023-07-20T01:47:58;98507.56;;;20.29;73.27
14120;BME280;7138;49.246;9.100;2023-07-20T01:50:25;98499.72;;;20.28;73.05
14120;BME280;7138;49.246;9.100;2023-07-20T01:52:51;98506.84;;;20.26;73.40
14120;BME280;7138;49.246;9.100;2023-07-20T01:55:17;98504.25;;;20.24;73.10
14120;BME280;7138;49.246;9.100;2023-07-20T01:57:42;98503.44;;;20.22;73.46
14120;BME280;7138;49.246;9.100;2023-07-20T02:00:10;98498.31;;;20.19;73.21
14120;BME280;7138;49.246;9.100;2023-07-20T02:02:37;98506.06;;;20.22;73.33
14120;BME280;7138;49.246;9.100;2023-07-20T02:05:04;98508.78;;;20.21;73.08
14120;BME280;7138;49.246;9.100;2023-07-20T02:07:31;98513.19;;;20.20;73.48
14120;BME280;7138;49.246;9.100;2023-07-20T02:09:57;98511.66;;;20.14;73.61
14120;BME280;7138;49.246;9.100;2023-07-20T02:12:22;98514.41;;;20.11;73.44
14120;BME280;7138;49.246;9.100;2023-07-20T02:14:48;98502.41;;;20.06;73.92
14120;BME280;7138;49.246;9.100;2023-07-20T02:17:16;98503.31;;;20.05;73.88
14120;BME280;7138;49.246;9.100;2023-07-20T02:19:42;98511.38;;;20.00;74.24
14120;BME280;7138;49.246;9.100;2023-07-20T02:22:08;98514.06;;;19.99;74.02
14120;BME280;7138;49.246;9.100;2023-07-20T02:24:35;98513.22;;;19.98;74.12
14120;BME280;7138;49.246;9.100;2023-07-20T02:27:01;98512.44;;;19.96;74.18
14120;BME280;7138;49.246;9.100;2023-07-20T02:29:27;98511.50;;;19.97;74.16
14120;BME280;7138;49.246;9.100;2023-07-20T02:31:53;98516.03;;;19.94;74.71
14120;BME280;7138;49.246;9.100;2023-07-20T02:34:19;98507.34;;;19.92;74.55
14120;BME280;7138;49.246;9.100;2023-07-20T02:36:45;98503.94;;;19.90;74.27
14120;BME280;7138;49.246;9.100;2023-07-20T02:39:11;98504.97;;;19.86;74.18
14120;BME280;7138;49.246;9.100;2023-07-20T02:41:39;98516.59;;;19.80;74.70
14120;BME280;7138;49.246;9.100;2023-07-20T02:44:04;98520.19;;;19.78;74.62
14120;BME280;7138;49.246;9.100;2023-07-20T02:46:30;98514.28;;;19.73;74.97
14120;BME280;7138;49.246;9.100;2023-07-20T02:48:56;98513.56;;;19.69;74.80
14120;BME280;7138;49.246;9.100;2023-07-20T02:51:22;98515.50;;;19.64;74.95
14120;BME280;7138;49.246;9.100;2023-07-20T02:53:48;98514.66;;;19.63;75.31
14120;BME280;7138;49.246;9.100;2023-07-20T02:56:14;98512.03;;;19.63;75.14
14120;BME280;7138;49.246;9.100;2023-07-20T02:58:42;98524.34;;;19.61;75.03
14120;BME280;7138;49.246;9.100;2023-07-20T03:01:11;98530.53;;;19.60;75.21
14120;BME280;7138;49.246;9.100;2023-07-20T03:03:38;98524.34;;;19.61;75.36
14120;BME280;7138;49.246;9.100;2023-07-20T03:06:04;98527.81;;;19.62;75.25
14120;BME280;7138;49.246;9.100;2023-07-20T03:08:30;98529.72;;;19.58;75.03
14120;BME280;7138;49.246;9.100;2023-07-20T03:10:56;98540.03;;;19.63;75.43
14120;BME280;7138;49.246;9.100;2023-07-20T03:13:22;98529.53;;;19.63;75.56
14120;BME280;7138;49.246;9.100;2023-07-20T03:15:52;98536.69;;;19.59;75.25
14120;BME280;7138;49.246;9.100;2023-07-20T03:18:18;98535.94;;;19.56;75.64
14120;BME280;7138;49.246;9.100;2023-07-20T03:20:43;98535.19;;;19.52;76.12
14120;BME280;7138;49.246;9.100;2023-07-20T03:23:10;98541.38;;;19.51;76.16
14120;BME280;7138;49.246;9.100;2023-07-20T03:25:36;98539.00;;;19.45;75.89
14120;BME280;7138;49.246;9.100;2023-07-20T03:28:03;98537.28;;;19.44;76.13
14120;BME280;7138;49.246;9.100;2023-07-20T03:30:29;98539.91;;;19.44;76.10
14120;BME280;7138;49.246;9.100;2023-07-20T03:32:59;98541.66;;;19.44;76.35
14120;BME280;7138;49.246;9.100;2023-07-20T03:35:25;98547.97;;;19.38;76.26
14120;BME280;7138;49.246;9.100;2023-07-20T03:37:51;98546.31;;;19.36;76.54
14120;BME280;7138;49.246;9.100;2023-07-20T03:40:17;98555.25;;;19.30;76.59
14120;BME280;7138;49.246;9.100;2023-07-20T03:42:43;98549.53;;;19.21;76.80
14120;BME280;7138;49.246;9.100;2023-07-20T03:45:10;98557.44;;;19.19;76.97
14120;BME280;7138;49.246;9.100;2023-07-20T03:47:35;98549.69;;;19.16;77.04
14120;BME280;7138;49.246;9.100;2023-07-20T03:50:03;98558.31;;;19.20;77.21
14120;BME280;7138;49.246;9.100;2023-07-20T03:52:31;98552.19;;;19.19;77.27
14120;BME280;7138;49.246;9.100;2023-07-20T03:54:57;98556.66;;;19.17;77.24
14120;BME280;7138;49.246;9.100;2023-07-20T03:57:22;98555.00;;;19.15;77.68
14120;BME280;7138;49.246;9.100;2023-07-20T03:59:48;98549.03;;;19.11;77.57
14120;BME280;7138;49.246;9.100;2023-07-20T04:02:14;98553.50;;;19.07;77.69
14120;BME280;7138;49.246;9.100;2023-07-20T04:04:41;98553.63;;;19.04;77.73
14120;BME280;7138;49.246;9.100;2023-07-20T04:07:08;98557.03;;;19.06;78.06
14120;BME280;7138;49.246;9.100;2023-07-20T04:09:34;98558.97;;;19.01;77.87
14120;BME280;7138;49.246;9.100;2023-07-20T04:12:00;98559.88;;;19.00;77.97
14120;BME280;7138;49.246;9.100;2023-07-20T04:14:26;98565.19;;;18.99;78.37
14120;BME280;7138;49.246;9.100;2023-07-20T04:16:51;98572.25;;;18.97;78.41
14120;BME280;7138;49.246;9.100;2023-07-20T04:19:17;98575.84;;;18.94;78.55
14120;BME280;7138;49.246;9.100;2023-07-20T04:21:43;98571.66;;;18.89;78.66
14120;BME280;7138;49.246;9.100;2023-07-20T04:24:11;98576.91;;;18.89;78.87
14120;BME280;7138;49.246;9.100;2023-07-20T04:26:37;98572.66;;;18.86;78.78
14120;BME280;7138;49.246;9.100;2023-07-20T04:29:03;98570.88;;;18.87;78.86
14120;BME280;7138;49.246;9.100;2023-07-20T04:31:29;98575.38;;;18.83;78.89
14120;BME280;7138;49.246;9.100;2023-07-20T04:33:58;98573.66;;;18.82;78.94
14120;BME280;7138;49.246;9.100;2023-07-20T04:36:23;98580.63;;;18.83;78.88
14120;BME280;7138;49.246;9.100;2023-07-20T04:38:49;98581.59;;;18.81;79.14
14120;BME280;7138;49.246;9.100;2023-07-20T04:41:16;98591.22;;;18.80;79.16
14120;BME280;7138;49.246;9.100;2023-07-20T04:43:43;98579.88;;;18.80;79.19
14120;BME280;7138;49.246;9.100;2023-07-20T04:46:09;98587.69;;;18.81;79.42
14120;BME280;7138;49.246;9.100;2023-07-20T04:48:35;98586.88;;;18.79;79.25
14120;BME280;7138;49.246;9.100;2023-07-20T04:51:02;98581.38;;;18.87;79.82
14120;BME280;7138;49.246;9.100;2023-07-20T04:53:28;98580.41;;;18.89;79.69
14120;BME280;7138;49.246;9.100;2023-07-20T04:55:54;98583.69;;;18.94;79.84
14120;BME280;7138;49.246;9.100;2023-07-20T04:58:22;98584.41;;;18.99;79.52
14120;BME280;7138;49.246;9.100;2023-07-20T05:00:49;98579.78;;;19.06;80.28
14120;BME280;7138;49.246;9.100;2023-07-20T05:03:14;98585.50;;;19.17;79.94
14120;BME280;7138;49.246;9.100;2023-07-20T05:05:40;98579.34;;;19.41;79.32
14120;BME280;7138;49.246;9.100;2023-07-20T05:08:06;98580.91;;;19.69;78.64
14120;BME280;7138;49.246;9.100;2023-07-20T05:10:32;98587.28;;;19.85;77.81
14120;BME280;7138;49.246;9.100;2023-07-20T05:12:58;98584.50;;;20.09;77.68
14120;BME280;7138;49.246;9.100;2023-07-20T05:15:25;98585.06;;;20.59;76.95
14120;BME280;7138;49.246;9.100;2023-07-20T05:17:51;98582.88;;;21.28;74.52
14120;BME280;7138;49.246;9.100;2023-07-20T05:20:18;98583.91;;;22.17;73.02
14120;BME280;7138;49.246;9.100;2023-07-20T05:22:44;98584.44;;;23.10;70.75
14120;BME280;7138;49.246;9.100;2023-07-20T05:25:11;98580.53;;;23.97;68.62
14120;BME280;7138;49.246;9.100;2023-07-20T05:27:38;98586.66;;;24.88;66.22
14120;BME280;7138;49.246;9.100;2023-07-20T05:30:06;98588.44;;;25.72;64.88
14120;BME280;7138;49.246;9.100;2023-07-20T05:32:34;98587.00;;;26.61;63.15
14120;BME280;7138;49.246;9.100;2023-07-20T05:35:00;98573.03;;;27.35;61.08
14120;BME280;7138;49.246;9.100;2023-07-20T05:37:26;98579.38;;;28.06;59.96
14120;BME280;7138;49.246;9.100;2023-07-20T05:39:52;98581.38;;;28.74;58.77
14120;BME280;7138;49.246;9.100;2023-07-20T05:42:17;98583.78;;;29.34;57.88
14120;BME280;7138;49.246;9.100;2023-07-20T05:44:43;98588.34;;;29.99;57.16
14120;BME280;7138;49.246;9.100;2023-07-20T05:47:09;98585.00;;;30.60;55.60
14120;BME280;7138;49.246;9.100;2023-07-20T05:49:36;98582.81;;;31.27;54.20
14120;BME280;7138;49.246;9.100;2023-07-20T05:52:02;98584.72;;;31.86;53.76
14120;BME280;7138;49.246;9.100;2023-07-20T05:54:28;98587.94;;;32.39;52.83
14120;BME280;7138;49.246;9.100;2023-07-20T05:56:54;98591.75;;;32.84;51.74
14120;BME280;7138;49.246;9.100;2023-07-20T05:59:20;98581.50;;;33.26;51.19
14120;BME280;7138;49.246;9.100;2023-07-20T06:01:46;98584.63;;;33.68;50.68
14120;BME280;7138;49.246;9.100;2023-07-20T06:04:15;98583.16;;;34.01;49.87
14120;BME280;7138;49.246;9.100;2023-07-20T06:06:42;98576.84;;;34.37;49.13
14120;BME280;7138;49.246;9.100;2023-07-20T06:09:08;98568.78;;;34.73;48.37
14120;BME280;7138;49.246;9.100;2023-07-20T06:11:37;98575.41;;;35.04;47.83
14120;BME280;7138;49.246;9.100;2023-07-20T06:14:03;98573.38;;;35.24;49.18
14120;BME280;7138;49.246;9.100;2023-07-20T06:16:29;98576.88;;;35.50;47.60
14120;BME280;7138;49.246;9.100;2023-07-20T06:18:55;98577.88;;;35.83;46.83
14120;BME280;7138;49.246;9.100;2023-07-20T06:21:21;98577.00;;;36.24;46.25
14120;BME280;7138;49.246;9.100;2023-07-20T06:23:48;98578.41;;;36.60;47.02
14120;BME280;7138;49.246;9.100;2023-07-20T06:26:14;98581.09;;;36.85;45.31
14120;BME280;7138;49.246;9.100;2023-07-20T06:28:40;98579.78;;;36.81;45.06
14120;BME280;7138;49.246;9.100;2023-07-20T06:31:06;98581.47;;;36.74;44.61
14120;BME280;7138;49.246;9.100;2023-07-20T06:33:31;98582.66;;;36.71;44.74
14120;BME280;7138;49.246;9.100;2023-07-20T06:35:58;98585.16;;;36.64;44.49
14120;BME280;7138;49.246;9.100;2023-07-20T06:38:24;98581.44;;;36.49;46.21
14120;BME280;7138;49.246;9.100;2023-07-20T06:40:51;98587.13;;;36.30;45.49
14120;BME280;7138;49.246;9.100;2023-07-20T06:43:17;98577.31;;;36.05;45.44
14120;BME280;7138;49.246;9.100;2023-07-20T06:45:43;98591.50;;;35.81;45.71
14120;BME280;7138;49.246;9.100;2023-07-20T06:48:09;98588.84;;;35.55;46.41
14120;BME280;7138;49.246;9.100;2023-07-20T06:50:35;98592.81;;;34.92;46.25
14120;BME280;7138;49.246;9.100;2023-07-20T06:53:01;98588.13;;;34.23;46.56
14120;BME280;7138;49.246;9.100;2023-07-20T06:55:29;98584.16;;;33.73;48.05
14120;BME280;7138;49.246;9.100;2023-07-20T06:57:57;98587.03;;;33.25;48.39
14120;BME280;7138;49.246;9.100;2023-07-20T07:00:23;98584.97;;;32.90;48.63
14120;BME280;7138;49.246;9.100;2023-07-20T07:02:49;98583.03;;;32.63;49.70
14120;BME280;7138;49.246;9.100;2023-07-20T07:05:15;98587.81;;;32.40;50.11
14120;BME280;7138;49.246;9.100;2023-07-20T07:07:41;98582.81;;;32.07;51.00
14120;BME280;7138;49.246;9.100;2023-07-20T07:10:07;98588.22;;;31.77;51.28
14120;BME280;7138;49.246;9.100;2023-07-20T07:12:34;98585.47;;;31.27;51.97
14120;BME280;7138;49.246;9.100;2023-07-20T07:15:02;98583.38;;;30.89;53.25
14120;BME280;7138;49.246;9.100;2023-07-20T07:17:27;98585.09;;;30.70;52.25
14120;BME280;7138;49.246;9.100;2023-07-20T07:19:54;98582.72;;;30.56;53.95
14120;BME280;7138;49.246;9.100;2023-07-20T07:22:20;98585.81;;;30.40;52.76
14120;BME280;7138;49.246;9.100;2023-07-20T07:24:47;98589.47;;;30.28;53.75
14120;BME280;7138;49.246;9.100;2023-07-20T07:27:12;98585.41;;;30.13;54.05
14120;BME280;7138;49.246;9.100;2023-07-20T07:29:38;98582.16;;;29.98;54.69
14120;BME280;7138;49.246;9.100;2023-07-20T07:32:07;98576.63;;;29.79;53.67
14120;BME280;7138;49.246;9.100;2023-07-20T07:34:33;98575.53;;;29.59;55.70
14120;BME280;7138;49.246;9.100;2023-07-20T07:37:00;98579.06;;;29.49;54.33
14120;BME280;7138;49.246;9.100;2023-07-20T07:39:26;98572.91;;;29.26;55.15
14120;BME280;7138;49.246;9.100;2023-07-20T07:41:52;98565.22;;;29.10;55.40
14120;BME280;7138;49.246;9.100;2023-07-20T07:44:18;98570.16;;;29.04;54.59
14120;BME280;7138;49.246;9.100;2023-07-20T07:46:44;98567.38;;;28.83;55.46
14120;BME280;7138;49.246;9.100;2023-07-20T07:49:11;98570.72;;;28.74;55.56
14120;BME280;7138;49.246;9.100;2023-07-20T07:51:37;98575.03;;;28.64;55.71
14120;BME280;7138;49.246;9.100;2023-07-20T07:54:03;98573.91;;;28.55;56.40
14120;BME280;7138;49.246;9.100;2023-07-20T07:56:29;98567.72;;;28.55;57.16
14120;BME280;7138;49.246;9.100;2023-07-20T07:58:55;98570.59;;;28.64;56.99
14120;BME280;7138;49.246;9.100;2023-07-20T08:01:21;98570.47;;;28.66;56.82
14120;BME280;7138;49.246;9.100;2023-07-20T08:03:47;98575.25;;;28.61;56.33
14120;BME280;7138;49.246;9.100;2023-07-20T08:06:15;98574.53;;;28.59;56.35
14120;BME280;7138;49.246;9.100;2023-07-20T08:08:41;98575.00;;;28.53;55.89
14120;BME280;7138;49.246;9.100;2023-07-20T08:11:08;98581.00;;;28.44;57.27
14120;BME280;7138;49.246;9.100;2023-07-20T08:13:34;98576.16;;;28.38;56.21
14120;BME280;7138;49.246;9.100;2023-07-20T08:16:00;98578.16;;;28.23;55.86
14120;BME280;7138;49.246;9.100;2023-07-20T08:18:28;98585.00;;;28.14;56.32
14120;BME280;7138;49.246;9.100;2023-07-20T08:20:53;98582.56;;;28.11;57.38
14120;BME280;7138;49.246;9.100;2023-07-20T08:23:21;98581.44;;;27.90;56.39
14120;BME280;7138;49.246;9.100;2023-07-20T08:25:47;98571.63;;;27.67;56.83
14120;BME280;7138;49.246;9.100;2023-07-20T08:28:15;98570.75;;;27.66;57.72
14120;BME280;7138;49.246;9.100;2023-07-20T08:30:42;98579.97;;;27.50;56.97
14120;BME280;7138;49.246;9.100;2023-07-20T08:33:10;98580.41;;;27.44;57.47
14120;BME280;7138;49.246;9.100;2023-07-20T08:35:37;98575.56;;;27.36;57.36
14120;BME280;7138;49.246;9.100;2023-07-20T08:38:02;98577.22;;;27.26;57.76
14120;BME280;7138;49.246;9.100;2023-07-20T08:40:31;98576.06;;;27.18;58.90
14120;BME280;7138;49.246;9.100;2023-07-20T08:42:59;98566.47;;;27.15;57.96
14120;BME280;7138;49.246;9.100;2023-07-20T08:45:27;98562.78;;;27.18;57.52
14120;BME280;7138;49.246;9.100;2023-07-20T08:47:58;98565.09;;;27.22;57.60
14120;BME280;7138;49.246;9.100;2023-07-20T08:50:27;98561.88;;;27.42;58.77
14120;BME280;7138;49.246;9.100;2023-07-20T08:52:59;98565.38;;;27.55;57.80
14120;BME280;7138;49.246;9.100;2023-07-20T08:55:26;98573.47;;;27.54;57.21
14120;BME280;7138;49.246;9.100;2023-07-20T08:57:56;98567.41;;;27.52;55.06
14120;BME280;7138;49.246;9.100;2023-07-20T09:00:23;98573.56;;;27.27;55.25
14120;BME280;7138;49.246;9.100;2023-07-20T09:02:50;98575.50;;;27.12;56.99
14120;BME280;7138;49.246;9.100;2023-07-20T09:05:17;98579.75;;;26.90;56.55
14120;BME280;7138;49.246;9.100;2023-07-20T09:07:43;98575.69;;;26.84;56.94
14120;BME280;7138;49.246;9.100;2023-07-20T09:10:09;98570.19;;;26.87;57.13
14120;BME280;7138;49.246;9.100;2023-07-20T09:12:37;98569.97;;;26.90;57.16
14120;BME280;7138;49.246;9.100;2023-07-20T09:15:06;98568.81;;;26.94;56.57
14120;BME280;7138;49.246;9.100;2023-07-20T09:17:32;98567.00;;;26.95;56.21
14120;BME280;7138;49.246;9.100;2023-07-20T09:19:59;98566.59;;;26.88;56.16
14120;BME280;7138;49.246;9.100;2023-07-20T09:22:30;98571.34;;;27.08;56.98
14120;BME280;7138;49.246;9.100;2023-07-20T09:24:57;98561.59;;;27.09;56.20
14120;BME280;7138;49.246;9.100;2023-07-20T09:27:35;98554.69;;;27.06;55.53
14120;BME280;7138;49.246;9.100;2023-07-20T09:30:04;98570.19;;;27.25;56.79
14120;BME280;7138;49.246;9.100;2023-07-20T09:32:30;98567.75;;;27.09;55.88
14120;BME280;7138;49.246;9.100;2023-07-20T09:34:56;98565.00;;;27.11;56.21
14120;BME280;7138;49.246;9.100;2023-07-20T09:37:22;98565.50;;;27.29;55.87
14120;BME280;7138;49.246;9.100;2023-07-20T09:39:52;98560.09;;;27.43;55.10
14120;BME280;7138;49.246;9.100;2023-07-20T09:42:23;98564.34;;;27.45;55.94
14120;BME280;7138;49.246;9.100;2023-07-20T09:44:50;98556.03;;;27.50;53.39
14120;BME280;7138;49.246;9.100;2023-07-20T09:47:23;98553.69;;;27.58;54.48
14120;BME280;7138;49.246;9.100;2023-07-20T09:49:49;98562.25;;;27.74;55.39
14120;BME280;7138;49.246;9.100;2023-07-20T09:52:15;98564.88;;;27.87;56.07
14120;BME280;7138;49.246;9.100;2023-07-20T09:54:44;98554.19;;;27.99;55.52
14120;BME280;7138;49.246;9.100;2023-07-20T09:57:11;98552.84;;;28.17;55.18
14120;BME280;7138;49.246;9.100;2023-07-20T09:59:39;98563.69;;;28.38;57.32
14120;BME280;7138;49.246;9.100;2023-07-20T10:02:15;98556.59;;;28.50;55.85
14120;BME280;7138;49.246;9.100;2023-07-20T10:04:49;98558.41;;;28.49;54.74
14120;BME280;7138;49.246;9.100;2023-07-20T10:07:19;98565.06;;;28.55;53.89
14120;BME280;7138;49.246;9.100;2023-07-20T10:09:48;98553.47;;;28.56;53.27
14120;BME280;7138;49.246;9.100;2023-07-20T10:12:16;98559.16;;;28.51;53.88
14120;BME280;7138;49.246;9.100;2023-07-20T10:14:52;98555.22;;;28.68;54.68
14120;BME280;7138;49.246;9.100;2023-07-20T10:17:23;98559.97;;;28.76;54.52
14120;BME280;7138;49.246;9.100;2023-07-20T10:19:56;98553.56;;;28.78;51.15
14120;BME280;7138;49.246;9.100;2023-07-20T10:22:25;98550.66;;;28.81;52.36
14120;BME280;7138;49.246;9.100;2023-07-20T10:24:52;98546.69;;;28.87;52.84
14120;BME280;7138;49.246;9.100;2023-07-20T10:27:20;98542.69;;;29.03;53.74
14120;BME280;7138;49.246;9.100;2023-07-20T10:29:47;98537.84;;;29.19;54.37
14120;BME280;7138;49.246;9.100;2023-07-20T10:32:14;98544.06;;;29.31;53.79
14120;BME280;7138;49.246;9.100;2023-07-20T10:34:40;98528.09;;;29.42;54.09
14120;BME280;7138;49.246;9.100;2023-07-20T10:37:07;98528.06;;;29.53;54.04
14120;BME280;7138;49.246;9.100;2023-07-20T10:39:34;98528.91;;;29.54;52.90
14120;BME280;7138;49.246;9.100;2023-07-20T10:42:01;98522.59;;;29.55;52.44
14120;BME280;7138;49.246;9.100;2023-07-20T10:44:29;98533.75;;;29.60;53.31
14120;BME280;7138;49.246;9.100;2023-07-20T10:47:00;98522.09;;;29.61;52.76
14120;BME280;7138;49.246;9.100;2023-07-20T10:49:26;98518.72;;;29.59;51.91
14120;BME280;7138;49.246;9.100;2023-07-20T10:51:57;98519.06;;;29.65;52.27
14120;BME280;7138;49.246;9.100;2023-07-20T10:54:47;98518.56;;;29.71;53.17
14120;BME280;7138;49.246;9.100;2023-07-20T10:57:28;98523.91;;;29.83;52.41
14120;BME280;7138;49.246;9.100;2023-07-20T11:00:10;98511.16;;;29.97;51.56
14120;BME280;7138;49.246;9.100;2023-07-20T11:02:47;98512.72;;;30.00;51.36
14120;BME280;7138;49.246;9.100;2023-07-20T11:05:36;98514.47;;;30.10;51.87
14120;BME280;7138;49.246;9.100;2023-07-20T11:08:10;98518.03;;;30.00;50.54
14120;BME280;7138;49.246;9.100;2023-07-20T11:10:39;98514.53;;;29.99;51.33
14120;BME280;7138;49.246;9.100;2023-07-20T11:13:23;98514.88;;;29.95;51.92
14120;BME280;7138;49.246;9.100;2023-07-20T11:16:03;98524.25;;;29.89;51.14
14120;BME280;7138;49.246;9.100;2023-07-20T11:18:30;98519.41;;;29.94;50.10
14120;BME280;7138;49.246;9.100;2023-07-20T11:20:58;98517.75;;;29.82;50.85
14120;BME280;7138;49.246;9.100;2023-07-20T11:23:24;98500.88;;;29.82;50.51
14120;BME280;7138;49.246;9.100;2023-07-20T11:25:51;98499.75;;;29.95;50.45
14120;BME280;7138;49.246;9.100;2023-07-20T11:28:17;98495.94;;;30.09;52.08
14120;BME280;7138;49.246;9.100;2023-07-20T11:30:43;98504.72;;;30.20;50.45
14120;BME280;7138;49.246;9.100;2023-07-20T11:33:09;98501.66;;;30.25;50.17
14120;BME280;7138;49.246;9.100;2023-07-20T11:35:36;98497.72;;;30.40;51.16
14120;BME280;7138;49.246;9.100;2023-07-20T11:38:07;98495.03;;;30.51;50.43
14120;BME280;7138;49.246;9.100;2023-07-20T11:40:33;98496.31;;;30.57;50.47
14120;BME280;7138;49.246;9.100;2023-07-20T11:43:01;98499.88;;;30.46;49.80
14120;BME280;7138;49.246;9.100;2023-07-20T11:45:28;98494.72;;;30.33;49.66
14120;BME280;7138;49.246;9.100;2023-07-20T11:47:58;98490.72;;;30.28;50.25
14120;BME280;7138;49.246;9.100;2023-07-20T11:50:25;98486.25;;;30.28;52.17
14120;BME280;7138;49.246;9.100;2023-07-20T11:52:51;98485.28;;;30.29;52.28
14120;BME280;7138;49.246;9.100;2023-07-20T11:55:17;98484.28;;;30.42;50.53
14120;BME280;7138;49.246;9.100;2023-07-20T11:58:03;98494.09;;;30.62;49.26
14120;BME280;7138;49.246;9.100;2023-07-20T12:00:29;98481.91;;;30.69;49.46
14120;BME280;7138;49.246;9.100;2023-07-20T12:02:58;98480.25;;;30.77;50.43
14120;BME280;7138;49.246;9.100;2023-07-20T12:05:24;98483.34;;;30.73;47.86
14120;BME280;7138;49.246;9.100;2023-07-20T12:07:50;98475.78;;;30.78;49.69
14120;BME280;7138;49.246;9.100;2023-07-20T12:10:25;98471.72;;;30.83;48.76
14120;BME280;7138;49.246;9.100;2023-07-20T12:12:52;98478.28;;;30.79;49.22
14120;BME280;7138;49.246;9.100;2023-07-20T12:15:23;98476.31;;;30.72;49.06
14120;BME280;7138;49.246;9.100;2023-07-20T12:17:52;98467.13;;;30.65;48.72
14120;BME280;7138;49.246;9.100;2023-07-20T12:20:26;98472.13;;;30.58;48.22
14120;BME280;7138;49.246;9.100;2023-07-20T12:22:52;98470.72;;;30.54;49.06
14120;BME280;7138;49.246;9.100;2023-07-20T12:25:21;98457.16;;;30.46;49.41
14120;BME280;7138;49.246;9.100;2023-07-20T12:27:48;98462.44;;;30.37;48.33
14120;BME280;7138;49.246;9.100;2023-07-20T12:30:14;98465.47;;;30.32;49.24
14120;BME280;7138;49.246;9.100;2023-07-20T12:32:42;98462.69;;;30.33;49.31
14120;BME280;7138;49.246;9.100;2023-07-20T12:35:08;98447.50;;;30.34;49.44
14120;BME280;7138;49.246;9.100;2023-07-20T12:37:34;98457.28;;;30.24;49.57
14120;BME280;7138;49.246;9.100;2023-07-20T12:40:00;98451.38;;;30.20;49.96
14120;BME280;7138;49.246;9.100;2023-07-20T12:42:26;98447.25;;;30.16;48.70
14120;BME280;7138;49.246;9.100;2023-07-20T12:44:52;98433.56;;;30.10;48.51
14120;BME280;7138;49.246;9.100;2023-07-20T12:47:18;98440.75;;;30.09;48.83
14120;BME280;7138;49.246;9.100;2023-07-20T12:49:45;98435.28;;;30.11;48.46
14120;BME280;7138;49.246;9.100;2023-07-20T12:52:12;98439.75;;;30.10;49.55
14120;BME280;7138;49.246;9.100;2023-07-20T12:54:38;98431.13;;;30.18;49.04
14120;BME280;7138;49.246;9.100;2023-07-20T12:57:04;98431.47;;;30.24;49.40
14120;BME280;7138;49.246;9.100;2023-07-20T12:59:30;98425.97;;;30.26;47.94
14120;BME280;7138;49.246;9.100;2023-07-20T13:01:56;98423.63;;;30.32;49.54
14120;BME280;7138;49.246;9.100;2023-07-20T13:04:22;98431.75;;;30.31;48.82
14120;BME280;7138;49.246;9.100;2023-07-20T13:06:49;98427.41;;;30.30;48.64
14120;BME280;7138;49.246;9.100;2023-07-20T13:09:15;98421.22;;;30.29;48.04
14120;BME280;7138;49.246;9.100;2023-07-20T13:11:41;98422.41;;;30.37;49.49
14120;BME280;7138;49.246;9.100;2023-07-20T13:14:06;98416.00;;;30.39;48.18
14120;BME280;7138;49.246;9.100;2023-07-20T13:16:32;98415.56;;;30.44;48.04